sensor_id;sensor_type;location;lat;lon;timestamp;pressure;altitude;pressure_sealevel;temperature
82411;BMP180;76378;60.040;30.218;2024-02-23T00:00:33;99688.00;;;10.40
82411;BMP180;76378;60.040;30.218;2024-02-23T00:01:34;99696.00;;;10.40
82411;BMP180;76378;60.040;30.218;2024-02-23T00:02:35;99710.00;;;10.40
82411;BMP180;76378;60.040;30.218;2024-02-23T00:03:35;99701.00;;;10.40
82411;BMP180;76378;60.040;30.218;2024-02-23T00:04:36;99692.00;;;10.40
82411;BMP180;76378;60.040;30.218;2024-02-23T00:05:37;99686.00;;;10.40
82411;BMP180;76378;60.040;30.218;2024-02-23T00:06:37;99685.00;;;10.50
82411;BMP180;76378;60.040;30.218;2024-02-23T00:07:38;99671.00;;;10.40
82411;BMP180;76378;60.040;30.218;2024-02-23T00:08:38;99693.00;;;10.40
82411;BMP180;76378;60.040;30.218;2024-02-23T00:09:40;99682.00;;;10.40
82411;BMP180;76378;60.040;30.218;2024-02-23T00:10:40;99603.00;;;10.50
82411;BMP180;76378;60.040;30.218;2024-02-23T00:11:41;99676.00;;;10.40
82411;BMP180;76378;60.040;30.218;2024-02-23T00:12:44;99686.00;;;10.40
82411;BMP180;76378;60.040;30.218;2024-02-23T00:13:45;99676.00;;;10.50
82411;BMP180;76378;60.040;30.218;2024-02-23T00:14:45;99671.00;;;10.40
82411;BMP180;76378;60.040;30.218;2024-02-23T00:15:46;99686.00;;;10.40
82411;BMP180;76378;60.040;30.218;2024-02-23T00:16:47;99624.00;;;10.40
82411;BMP180;76378;60.040;30.218;2024-02-23T00:17:47;99681.00;;;10.40
82411;BMP180;76378;60.040;30.218;2024-02-23T00:18:48;99659.00;;;10.40
82411;BMP180;76378;60.040;30.218;2024-02-23T00:19:48;99677.00;;;10.40
82411;BMP180;76378;60.040;30.218;2024-02-23T00:20:49;99672.00;;;10.40
82411;BMP180;76378;60.040;30.218;2024-02-23T00:21:50;99676.00;;;10.40
82411;BMP180;76378;60.040;30.218;2024-02-23T00:22:51;99677.00;;;10.40
82411;BMP180;76378;60.040;30.218;2024-02-23T00:23:52;99673.00;;;10.40
82411;BMP180;76378;60.040;30.218;2024-02-23T00:24:52;99643.00;;;10.40
82411;BMP180;76378;60.040;30.218;2024-02-23T00:25:53;99659.00;;;10.40
82411;BMP180;76378;60.040;30.218;2024-02-23T00:26:54;99660.00;;;10.40
82411;BMP180;76378;60.040;30.218;2024-02-23T00:27:54;99620.00;;;10.40
82411;BMP180;76378;60.040;30.218;2024-02-23T00:28:55;99648.00;;;10.40
82411;BMP180;76378;60.040;30.218;2024-02-23T00:29:56;99627.00;;;10.40
82411;BMP180;76378;60.040;30.218;2024-02-23T00:30:56;99657.00;;;10.40
82411;BMP180;76378;60.040;30.218;2024-02-23T00:31:57;99685.00;;;10.40
82411;BMP180;76378;60.040;30.218;2024-02-23T00:32:57;99676.00;;;10.40
82411;BMP180;76378;60.040;30.218;2024-02-23T00:33:58;99687.00;;;10.40
82411;BMP180;76378;60.040;30.218;2024-02-23T00:34:58;99602.00;;;10.40
82411;BMP180;76378;60.040;30.218;2024-02-23T00:35:59;99675.00;;;10.40
82411;BMP180;76378;60.040;30.218;2024-02-23T00:36:59;99636.00;;;10.40
82411;BMP180;76378;60.040;30.218;2024-02-23T00:38:00;99648.00;;;10.40
82411;BMP180;76378;60.040;30.218;2024-02-23T00:39:01;99596.00;;;10.40
82411;BMP180;76378;60.040;30.218;2024-02-23T00:40:03;99658.00;;;10.40
82411;BMP180;76378;60.040;30.218;2024-02-23T00:41:06;99666.00;;;10.40
82411;BMP180;76378;60.040;30.218;2024-02-23T00:42:07;99620.00;;;10.40
82411;BMP180;76378;60.040;30.218;2024-02-23T00:43:07;99639.00;;;10.40
82411;BMP180;76378;60.040;30.218;2024-02-23T00:44:08;99632.00;;;10.40
82411;BMP180;76378;60.040;30.218;2024-02-23T00:45:09;99672.00;;;10.40
82411;BMP180;76378;60.040;30.218;2024-02-23T00:46:09;99661.00;;;10.40
82411;BMP180;76378;60.040;30.218;2024-02-23T00:47:10;99624.00;;;10.40
82411;BMP180;76378;60.040;30.218;2024-02-23T00:48:10;99679.00;;;10.40
82411;BMP180;76378;60.040;30.218;2024-02-23T00:49:13;99641.00;;;10.40
82411;BMP180;76378;60.040;30.218;2024-02-23T00:50:14;99671.00;;;10.40
82411;BMP180;76378;60.040;30.218;2024-02-23T00:51:15;99665.00;;;10.40
82411;BMP180;76378;60.040;30.218;2024-02-23T00:52:15;99670.00;;;10.40
82411;BMP180;76378;60.040;30.218;2024-02-23T00:53:16;99652.00;;;10.40
82411;BMP180;76378;60.040;30.218;2024-02-23T00:54:18;99660.00;;;10.40
82411;BMP180;76378;60.040;30.218;2024-02-23T00:55:18;99665.00;;;10.40
82411;BMP180;76378;60.040;30.218;2024-02-23T00:56:19;99676.00;;;10.40
82411;BMP180;76378;60.040;30.218;2024-02-23T00:57:20;99667.00;;;10.40
82411;BMP180;76378;60.040;30.218;2024-02-23T00:58:27;99603.00;;;10.40
82411;BMP180;76378;60.040;30.218;2024-02-23T00:59:27;99661.00;;;10.40
82411;BMP180;76378;60.040;30.218;2024-02-23T01:00:28;99647.00;;;10.40
82411;BMP180;76378;60.040;30.218;2024-02-23T01:01:28;99624.00;;;10.40
82411;BMP180;76378;60.040;30.218;2024-02-23T01:02:29;99675.00;;;10.40
82411;BMP180;76378;60.040;30.218;2024-02-23T01:03:29;99639.00;;;10.40
82411;BMP180;76378;60.040;30.218;2024-02-23T01:04:30;99671.00;;;10.40
82411;BMP180;76378;60.040;30.218;2024-02-23T01:05:31;99667.00;;;10.40
82411;BMP180;76378;60.040;30.218;2024-02-23T01:06:31;99658.00;;;10.40
82411;BMP180;76378;60.040;30.218;2024-02-23T01:07:32;99669.00;;;10.40
82411;BMP180;76378;60.040;30.218;2024-02-23T01:08:32;99658.00;;;10.40
82411;BMP180;76378;60.040;30.218;2024-02-23T01:09:33;99659.00;;;10.40
82411;BMP180;76378;60.040;30.218;2024-02-23T01:10:34;99677.00;;;10.40
82411;BMP180;76378;60.040;30.218;2024-02-23T01:11:34;99618.00;;;10.40
82411;BMP180;76378;60.040;30.218;2024-02-23T01:12:35;99653.00;;;10.40
82411;BMP180;76378;60.040;30.218;2024-02-23T01:13:36;99615.00;;;10.40
82411;BMP180;76378;60.040;30.218;2024-02-23T01:14:36;99629.00;;;10.40
82411;BMP180;76378;60.040;30.218;2024-02-23T01:15:37;99647.00;;;10.40
82411;BMP180;76378;60.040;30.218;2024-02-23T01:16:38;99666.00;;;10.40
82411;BMP180;76378;60.040;30.218;2024-02-23T01:17:38;99621.00;;;10.40
82411;BMP180;76378;60.040;30.218;2024-02-23T01:18:39;99637.00;;;10.40
82411;BMP180;76378;60.040;30.218;2024-02-23T01:19:43;99652.00;;;10.40
82411;BMP180;76378;60.040;30.218;2024-02-23T01:20:45;99659.00;;;10.40
82411;BMP180;76378;60.040;30.218;2024-02-23T01:21:45;99629.00;;;10.40
82411;BMP180;76378;60.040;30.218;2024-02-23T01:22:46;99637.00;;;10.40
82411;BMP180;76378;60.040;30.218;2024-02-23T01:23:47;99618.00;;;10.40
82411;BMP180;76378;60.040;30.218;2024-02-23T01:24:47;99681.00;;;10.40
82411;BMP180;76378;60.040;30.218;2024-02-23T01:25:48;99679.00;;;10.40
82411;BMP180;76378;60.040;30.218;2024-02-23T01:26:48;99569.00;;;10.40
82411;BMP180;76378;60.040;30.218;2024-02-23T01:27:49;99681.00;;;10.40
82411;BMP180;76378;60.040;30.218;2024-02-23T01:28:49;99679.00;;;10.40
82411;BMP180;76378;60.040;30.218;2024-02-23T01:29:50;99671.00;;;10.40
82411;BMP180;76378;60.040;30.218;2024-02-23T01:30:50;99653.00;;;10.40
82411;BMP180;76378;60.040;30.218;2024-02-23T01:31:51;99654.00;;;10.40
82411;BMP180;76378;60.040;30.218;2024-02-23T01:32:52;99654.00;;;10.40
82411;BMP180;76378;60.040;30.218;2024-02-23T01:33:52;99657.00;;;10.40
82411;BMP180;76378;60.040;30.218;2024-02-23T01:34:53;99660.00;;;10.40
82411;BMP180;76378;60.040;30.218;2024-02-23T01:35:53;99675.00;;;10.40
82411;BMP180;76378;60.040;30.218;2024-02-23T01:36:54;99648.00;;;10.40
82411;BMP180;76378;60.040;30.218;2024-02-23T01:37:55;99667.00;;;10.40
82411;BMP180;76378;60.040;30.218;2024-02-23T01:38:55;99677.00;;;10.40
82411;BMP180;76378;60.040;30.218;2024-02-23T01:39:55;99661.00;;;10.40
82411;BMP180;76378;60.040;30.218;2024-02-23T01:40:56;99679.00;;;10.40
82411;BMP180;76378;60.040;30.218;2024-02-23T01:41:57;99661.00;;;10.40
82411;BMP180;76378;60.040;30.218;2024-02-23T01:43:02;99667.00;;;10.40
82411;BMP180;76378;60.040;30.218;2024-02-23T01:44:03;99631.00;;;10.40
82411;BMP180;76378;60.040;30.218;2024-02-23T01:45:04;99670.00;;;10.40
82411;BMP180;76378;60.040;30.218;2024-02-23T01:46:05;99666.00;;;10.40
82411;BMP180;76378;60.040;30.218;2024-02-23T01:47:06;99666.00;;;10.40
82411;BMP180;76378;60.040;30.218;2024-02-23T01:48:07;99654.00;;;10.40
82411;BMP180;76378;60.040;30.218;2024-02-23T01:49:07;99618.00;;;10.40
82411;BMP180;76378;60.040;30.218;2024-02-23T01:50:09;99654.00;;;10.40
82411;BMP180;76378;60.040;30.218;2024-02-23T01:51:09;99656.00;;;10.40
82411;BMP180;76378;60.040;30.218;2024-02-23T01:52:11;99647.00;;;10.40
82411;BMP180;76378;60.040;30.218;2024-02-23T01:53:12;99651.00;;;10.40
82411;BMP180;76378;60.040;30.218;2024-02-23T01:54:13;99647.00;;;10.40
82411;BMP180;76378;60.040;30.218;2024-02-23T01:55:14;99647.00;;;10.40
82411;BMP180;76378;60.040;30.218;2024-02-23T01:56:15;99660.00;;;10.40
82411;BMP180;76378;60.040;30.218;2024-02-23T01:57:20;99647.00;;;10.40
82411;BMP180;76378;60.040;30.218;2024-02-23T01:58:21;99610.00;;;10.40
82411;BMP180;76378;60.040;30.218;2024-02-23T01:59:23;99645.00;;;10.40
82411;BMP180;76378;60.040;30.218;2024-02-23T02:00:24;99647.00;;;10.40
82411;BMP180;76378;60.040;30.218;2024-02-23T02:01:24;99615.00;;;10.40
82411;BMP180;76378;60.040;30.218;2024-02-23T02:02:26;99600.00;;;10.40
82411;BMP180;76378;60.040;30.218;2024-02-23T02:03:27;99652.00;;;10.40
82411;BMP180;76378;60.040;30.218;2024-02-23T02:04:28;99646.00;;;10.40
82411;BMP180;76378;60.040;30.218;2024-02-23T02:05:29;99630.00;;;10.40
82411;BMP180;76378;60.040;30.218;2024-02-23T02:06:29;99594.00;;;10.40
82411;BMP180;76378;60.040;30.218;2024-02-23T02:07:30;99631.00;;;10.40
82411;BMP180;76378;60.040;30.218;2024-02-23T02:08:30;99595.00;;;10.40
82411;BMP180;76378;60.040;30.218;2024-02-23T02:09:31;99578.00;;;10.50
82411;BMP180;76378;60.040;30.218;2024-02-23T02:10:32;99623.00;;;10.50
82411;BMP180;76378;60.040;30.218;2024-02-23T02:11:32;99623.00;;;10.50
82411;BMP180;76378;60.040;30.218;2024-02-23T02:12:33;99573.00;;;10.50
82411;BMP180;76378;60.040;30.218;2024-02-23T02:13:33;99647.00;;;10.50
82411;BMP180;76378;60.040;30.218;2024-02-23T02:14:34;99639.00;;;10.50
82411;BMP180;76378;60.040;30.218;2024-02-23T02:15:34;99642.00;;;10.50
82411;BMP180;76378;60.040;30.218;2024-02-23T02:16:35;99608.00;;;10.50
82411;BMP180;76378;60.040;30.218;2024-02-23T02:17:36;99626.00;;;10.50
82411;BMP180;76378;60.040;30.218;2024-02-23T02:18:36;99621.00;;;10.50
82411;BMP180;76378;60.040;30.218;2024-02-23T02:19:37;99638.00;;;10.50
82411;BMP180;76378;60.040;30.218;2024-02-23T02:20:40;99638.00;;;10.50
82411;BMP180;76378;60.040;30.218;2024-02-23T02:21:45;99638.00;;;10.50
82411;BMP180;76378;60.040;30.218;2024-02-23T02:22:46;99586.00;;;10.50
82411;BMP180;76378;60.040;30.218;2024-02-23T02:23:46;99599.00;;;10.50
82411;BMP180;76378;60.040;30.218;2024-02-23T02:24:47;99584.00;;;10.50
82411;BMP180;76378;60.040;30.218;2024-02-23T02:25:58;99642.00;;;10.50
82411;BMP180;76378;60.040;30.218;2024-02-23T02:26:59;99589.00;;;10.50
82411;BMP180;76378;60.040;30.218;2024-02-23T02:27:59;99622.00;;;10.50
82411;BMP180;76378;60.040;30.218;2024-02-23T02:29:00;99636.00;;;10.50
82411;BMP180;76378;60.040;30.218;2024-02-23T02:30:00;99593.00;;;10.50
82411;BMP180;76378;60.040;30.218;2024-02-23T02:31:01;99586.00;;;10.50
82411;BMP180;76378;60.040;30.218;2024-02-23T02:32:02;99561.00;;;10.50
82411;BMP180;76378;60.040;30.218;2024-02-23T02:33:03;99636.00;;;10.50
82411;BMP180;76378;60.040;30.218;2024-02-23T02:34:04;99585.00;;;10.50
82411;BMP180;76378;60.040;30.218;2024-02-23T02:35:04;99637.00;;;10.50
82411;BMP180;76378;60.040;30.218;2024-02-23T02:36:05;99556.00;;;10.50
82411;BMP180;76378;60.040;30.218;2024-02-23T02:37:06;99642.00;;;10.50
82411;BMP180;76378;60.040;30.218;2024-02-23T02:38:06;99563.00;;;10.50
82411;BMP180;76378;60.040;30.218;2024-02-23T02:39:07;99632.00;;;10.50
82411;BMP180;76378;60.040;30.218;2024-02-23T02:40:08;99587.00;;;10.50
82411;BMP180;76378;60.040;30.218;2024-02-23T02:41:08;99598.00;;;10.50
82411;BMP180;76378;60.040;30.218;2024-02-23T02:42:09;99621.00;;;10.60
82411;BMP180;76378;60.040;30.218;2024-02-23T02:43:10;99557.00;;;10.60
82411;BMP180;76378;60.040;30.218;2024-02-23T02:44:10;99618.00;;;10.50
82411;BMP180;76378;60.040;30.218;2024-02-23T02:45:13;99600.00;;;10.60
82411;BMP180;76378;60.040;30.218;2024-02-23T02:46:13;99630.00;;;10.60
82411;BMP180;76378;60.040;30.218;2024-02-23T02:47:14;99618.00;;;10.60
82411;BMP180;76378;60.040;30.218;2024-02-23T02:48:14;99569.00;;;10.60
82411;BMP180;76378;60.040;30.218;2024-02-23T02:49:15;99572.00;;;10.60
82411;BMP180;76378;60.040;30.218;2024-02-23T02:50:16;99621.00;;;10.60
82411;BMP180;76378;60.040;30.218;2024-02-23T02:51:16;99578.00;;;10.60
82411;BMP180;76378;60.040;30.218;2024-02-23T02:52:17;99589.00;;;10.60
82411;BMP180;76378;60.040;30.218;2024-02-23T02:53:18;99632.00;;;10.60
82411;BMP180;76378;60.040;30.218;2024-02-23T02:54:18;99613.00;;;10.60
82411;BMP180;76378;60.040;30.218;2024-02-23T02:55:19;99632.00;;;10.60
82411;BMP180;76378;60.040;30.218;2024-02-23T02:56:19;99610.00;;;10.60
82411;BMP180;76378;60.040;30.218;2024-02-23T02:57:20;99609.00;;;10.60
82411;BMP180;76378;60.040;30.218;2024-02-23T02:58:20;99637.00;;;10.60
82411;BMP180;76378;60.040;30.218;2024-02-23T02:59:21;99626.00;;;10.60
82411;BMP180;76378;60.040;30.218;2024-02-23T03:00:22;99579.00;;;10.60
82411;BMP180;76378;60.040;30.218;2024-02-23T03:01:22;99633.00;;;10.60
82411;BMP180;76378;60.040;30.218;2024-02-23T03:02:23;99626.00;;;10.60
82411;BMP180;76378;60.040;30.218;2024-02-23T03:03:24;99537.00;;;10.60
82411;BMP180;76378;60.040;30.218;2024-02-23T03:04:24;99564.00;;;10.70
82411;BMP180;76378;60.040;30.218;2024-02-23T03:05:26;99636.00;;;10.60
82411;BMP180;76378;60.040;30.218;2024-02-23T03:06:27;99595.00;;;10.60
82411;BMP180;76378;60.040;30.218;2024-02-23T03:07:27;99620.00;;;10.60
82411;BMP180;76378;60.040;30.218;2024-02-23T03:08:28;99597.00;;;10.60
82411;BMP180;76378;60.040;30.218;2024-02-23T03:09:28;99629.00;;;10.70
82411;BMP180;76378;60.040;30.218;2024-02-23T03:10:29;99623.00;;;10.60
82411;BMP180;76378;60.040;30.218;2024-02-23T03:11:30;99634.00;;;10.70
82411;BMP180;76378;60.040;30.218;2024-02-23T03:12:30;99597.00;;;10.70
82411;BMP180;76378;60.040;30.218;2024-02-23T03:13:31;99633.00;;;10.70
82411;BMP180;76378;60.040;30.218;2024-02-23T03:14:32;99627.00;;;10.70
82411;BMP180;76378;60.040;30.218;2024-02-23T03:15:34;99560.00;;;10.70
82411;BMP180;76378;60.040;30.218;2024-02-23T03:16:34;99638.00;;;10.70
82411;BMP180;76378;60.040;30.218;2024-02-23T03:17:36;99589.00;;;10.70
82411;BMP180;76378;60.040;30.218;2024-02-23T03:18:37;99616.00;;;10.70
82411;BMP180;76378;60.040;30.218;2024-02-23T03:19:38;99629.00;;;10.70
82411;BMP180;76378;60.040;30.218;2024-02-23T03:20:38;99618.00;;;10.70
82411;BMP180;76378;60.040;30.218;2024-02-23T03:21:39;99637.00;;;10.70
82411;BMP180;76378;60.040;30.218;2024-02-23T03:22:40;99627.00;;;10.70
82411;BMP180;76378;60.040;30.218;2024-02-23T03:23:41;99619.00;;;10.70
82411;BMP180;76378;60.040;30.218;2024-02-23T03:24:41;99628.00;;;10.70
82411;BMP180;76378;60.040;30.218;2024-02-23T03:25:42;99614.00;;;10.70
82411;BMP180;76378;60.040;30.218;2024-02-23T03:26:42;99578.00;;;10.70
82411;BMP180;76378;60.040;30.218;2024-02-23T03:27:43;99585.00;;;10.70
82411;BMP180;76378;60.040;30.218;2024-02-23T03:28:44;99554.00;;;10.70
82411;BMP180;76378;60.040;30.218;2024-02-23T03:29:44;99642.00;;;10.70
82411;BMP180;76378;60.040;30.218;2024-02-23T03:30:45;99624.00;;;10.70
82411;BMP180;76378;60.040;30.218;2024-02-23T03:31:45;99625.00;;;10.70
82411;BMP180;76378;60.040;30.218;2024-02-23T03:32:46;99629.00;;;10.70
82411;BMP180;76378;60.040;30.218;2024-02-23T03:33:47;99607.00;;;10.70
82411;BMP180;76378;60.040;30.218;2024-02-23T03:34:47;99609.00;;;10.80
82411;BMP180;76378;60.040;30.218;2024-02-23T03:35:48;99592.00;;;10.70
82411;BMP180;76378;60.040;30.218;2024-02-23T03:36:49;99607.00;;;10.70
82411;BMP180;76378;60.040;30.218;2024-02-23T03:37:49;99631.00;;;10.80
82411;BMP180;76378;60.040;30.218;2024-02-23T03:38:50;99634.00;;;10.80
82411;BMP180;76378;60.040;30.218;2024-02-23T03:39:50;99592.00;;;10.80
82411;BMP180;76378;60.040;30.218;2024-02-23T03:40:51;99617.00;;;10.80
82411;BMP180;76378;60.040;30.218;2024-02-23T03:41:52;99636.00;;;10.80
82411;BMP180;76378;60.040;30.218;2024-02-23T03:42:52;99622.00;;;10.80
82411;BMP180;76378;60.040;30.218;2024-02-23T03:43:53;99603.00;;;10.80
82411;BMP180;76378;60.040;30.218;2024-02-23T03:44:53;99619.00;;;10.80
82411;BMP180;76378;60.040;30.218;2024-02-23T03:45:54;99573.00;;;10.80
82411;BMP180;76378;60.040;30.218;2024-02-23T03:46:55;99626.00;;;10.80
82411;BMP180;76378;60.040;30.218;2024-02-23T03:47:55;99612.00;;;10.80
82411;BMP180;76378;60.040;30.218;2024-02-23T03:48:56;99615.00;;;10.80
82411;BMP180;76378;60.040;30.218;2024-02-23T03:49:57;99631.00;;;10.80
82411;BMP180;76378;60.040;30.218;2024-02-23T03:50:58;99626.00;;;10.80
82411;BMP180;76378;60.040;30.218;2024-02-23T03:51:59;99594.00;;;10.80
82411;BMP180;76378;60.040;30.218;2024-02-23T03:52:59;99614.00;;;10.80
82411;BMP180;76378;60.040;30.218;2024-02-23T03:54:00;99551.00;;;10.80
82411;BMP180;76378;60.040;30.218;2024-02-23T03:55:00;99583.00;;;10.80
82411;BMP180;76378;60.040;30.218;2024-02-23T03:56:01;99594.00;;;10.80
82411;BMP180;76378;60.040;30.218;2024-02-23T03:57:01;99614.00;;;10.80
82411;BMP180;76378;60.040;30.218;2024-02-23T03:58:02;99615.00;;;10.70
82411;BMP180;76378;60.040;30.218;2024-02-23T03:59:03;99614.00;;;10.80
82411;BMP180;76378;60.040;30.218;2024-02-23T04:00:05;99573.00;;;10.80
82411;BMP180;76378;60.040;30.218;2024-02-23T04:01:06;99557.00;;;10.80
82411;BMP180;76378;60.040;30.218;2024-02-23T04:02:07;99552.00;;;10.80
82411;BMP180;76378;60.040;30.218;2024-02-23T04:03:07;99613.00;;;10.80
82411;BMP180;76378;60.040;30.218;2024-02-23T04:04:09;99564.00;;;10.80
82411;BMP180;76378;60.040;30.218;2024-02-23T04:05:09;99633.00;;;10.80
82411;BMP180;76378;60.040;30.218;2024-02-23T04:06:10;99567.00;;;10.80
82411;BMP180;76378;60.040;30.218;2024-02-23T04:07:10;99610.00;;;10.80
82411;BMP180;76378;60.040;30.218;2024-02-23T04:08:12;99619.00;;;10.80
82411;BMP180;76378;60.040;30.218;2024-02-23T04:09:12;99625.00;;;10.70
82411;BMP180;76378;60.040;30.218;2024-02-23T04:10:13;99565.00;;;10.80
82411;BMP180;76378;60.040;30.218;2024-02-23T04:11:16;99569.00;;;10.80
82411;BMP180;76378;60.040;30.218;2024-02-23T04:12:17;99624.00;;;10.80
82411;BMP180;76378;60.040;30.218;2024-02-23T04:13:18;99623.00;;;10.80
82411;BMP180;76378;60.040;30.218;2024-02-23T04:14:19;99568.00;;;10.80
82411;BMP180;76378;60.040;30.218;2024-02-23T04:15:19;99631.00;;;10.80
82411;BMP180;76378;60.040;30.218;2024-02-23T04:16:25;99586.00;;;10.80
82411;BMP180;76378;60.040;30.218;2024-02-23T04:17:25;99623.00;;;10.80
82411;BMP180;76378;60.040;30.218;2024-02-23T04:18:26;99625.00;;;10.80
82411;BMP180;76378;60.040;30.218;2024-02-23T04:19:26;99611.00;;;10.80
82411;BMP180;76378;60.040;30.218;2024-02-23T04:20:27;99575.00;;;10.80
82411;BMP180;76378;60.040;30.218;2024-02-23T04:21:27;99608.00;;;10.80
82411;BMP180;76378;60.040;30.218;2024-02-23T04:22:28;99557.00;;;10.80
82411;BMP180;76378;60.040;30.218;2024-02-23T04:23:28;99566.00;;;10.80
82411;BMP180;76378;60.040;30.218;2024-02-23T04:24:29;99541.00;;;10.80
82411;BMP180;76378;60.040;30.218;2024-02-23T04:25:29;99584.00;;;10.80
82411;BMP180;76378;60.040;30.218;2024-02-23T04:26:30;99575.00;;;10.80
82411;BMP180;76378;60.040;30.218;2024-02-23T04:27:30;99585.00;;;10.60
82411;BMP180;76378;60.040;30.218;2024-02-23T04:28:31;99525.00;;;10.80
82411;BMP180;76378;60.040;30.218;2024-02-23T04:29:34;99601.00;;;10.80
82411;BMP180;76378;60.040;30.218;2024-02-23T04:30:35;99528.00;;;10.80
82411;BMP180;76378;60.040;30.218;2024-02-23T04:31:38;99587.00;;;10.80
82411;BMP180;76378;60.040;30.218;2024-02-23T04:32:39;99526.00;;;10.80
82411;BMP180;76378;60.040;30.218;2024-02-23T04:33:39;99588.00;;;10.80
82411;BMP180;76378;60.040;30.218;2024-02-23T04:34:40;99568.00;;;10.80
82411;BMP180;76378;60.040;30.218;2024-02-23T04:35:41;99576.00;;;10.80
82411;BMP180;76378;60.040;30.218;2024-02-23T04:36:42;99592.00;;;10.80
82411;BMP180;76378;60.040;30.218;2024-02-23T04:37:45;99550.00;;;10.80
82411;BMP180;76378;60.040;30.218;2024-02-23T04:38:46;99612.00;;;10.80
82411;BMP180;76378;60.040;30.218;2024-02-23T04:39:46;99537.00;;;10.80
82411;BMP180;76378;60.040;30.218;2024-02-23T04:40:47;99587.00;;;10.80
82411;BMP180;76378;60.040;30.218;2024-02-23T04:41:47;99593.00;;;10.80
82411;BMP180;76378;60.040;30.218;2024-02-23T04:42:48;99543.00;;;10.80
82411;BMP180;76378;60.040;30.218;2024-02-23T04:43:49;99590.00;;;10.70
82411;BMP180;76378;60.040;30.218;2024-02-23T04:44:49;99593.00;;;10.80
82411;BMP180;76378;60.040;30.218;2024-02-23T04:45:51;99581.00;;;10.80
82411;BMP180;76378;60.040;30.218;2024-02-23T04:46:51;99589.00;;;10.80
82411;BMP180;76378;60.040;30.218;2024-02-23T04:47:52;99527.00;;;10.80
82411;BMP180;76378;60.040;30.218;2024-02-23T04:48:53;99578.00;;;10.80
82411;BMP180;76378;60.040;30.218;2024-02-23T04:49:53;99510.00;;;10.80
82411;BMP180;76378;60.040;30.218;2024-02-23T04:50:54;99540.00;;;10.80
82411;BMP180;76378;60.040;30.218;2024-02-23T04:51:54;99578.00;;;10.80
82411;BMP180;76378;60.040;30.218;2024-02-23T04:52:55;99582.00;;;10.80
82411;BMP180;76378;60.040;30.218;2024-02-23T04:53:55;99525.00;;;10.80
82411;BMP180;76378;60.040;30.218;2024-02-23T04:54:56;99583.00;;;10.80
82411;BMP180;76378;60.040;30.218;2024-02-23T04:55:56;99585.00;;;10.80
82411;BMP180;76378;60.040;30.218;2024-02-23T04:56:57;99566.00;;;10.80
82411;BMP180;76378;60.040;30.218;2024-02-23T04:57:57;99583.00;;;10.80
82411;BMP180;76378;60.040;30.218;2024-02-23T04:58:58;99579.00;;;10.80
82411;BMP180;76378;60.040;30.218;2024-02-23T04:59:58;99552.00;;;10.80
82411;BMP180;76378;60.040;30.218;2024-02-23T05:00:59;99551.00;;;10.80
82411;BMP180;76378;60.040;30.218;2024-02-23T05:02:00;99552.00;;;10.80
82411;BMP180;76378;60.040;30.218;2024-02-23T05:03:01;99564.00;;;10.80
82411;BMP180;76378;60.040;30.218;2024-02-23T05:04:03;99570.00;;;10.80
82411;BMP180;76378;60.040;30.218;2024-02-23T05:05:04;99584.00;;;10.80
82411;BMP180;76378;60.040;30.218;2024-02-23T05:06:05;99576.00;;;10.80
82411;BMP180;76378;60.040;30.218;2024-02-23T05:07:05;99576.00;;;10.80
82411;BMP180;76378;60.040;30.218;2024-02-23T05:08:06;99530.00;;;10.80
82411;BMP180;76378;60.040;30.218;2024-02-23T05:09:06;99562.00;;;10.80
82411;BMP180;76378;60.040;30.218;2024-02-23T05:10:09;99556.00;;;10.80
82411;BMP180;76378;60.040;30.218;2024-02-23T05:11:10;99508.00;;;10.80
82411;BMP180;76378;60.040;30.218;2024-02-23T05:12:10;99557.00;;;10.80
82411;BMP180;76378;60.040;30.218;2024-02-23T05:13:11;99497.00;;;10.80
82411;BMP180;76378;60.040;30.218;2024-02-23T05:14:11;99564.00;;;10.80
82411;BMP180;76378;60.040;30.218;2024-02-23T05:15:12;99546.00;;;10.80
82411;BMP180;76378;60.040;30.218;2024-02-23T05:16:15;99580.00;;;10.80
82411;BMP180;76378;60.040;30.218;2024-02-23T05:17:16;99536.00;;;10.80
82411;BMP180;76378;60.040;30.218;2024-02-23T05:18:17;99517.00;;;10.80
82411;BMP180;76378;60.040;30.218;2024-02-23T05:19:18;99554.00;;;10.80
82411;BMP180;76378;60.040;30.218;2024-02-23T05:20:18;99564.00;;;10.80
82411;BMP180;76378;60.040;30.218;2024-02-23T05:21:19;99512.00;;;10.80
82411;BMP180;76378;60.040;30.218;2024-02-23T05:22:20;99505.00;;;10.80
82411;BMP180;76378;60.040;30.218;2024-02-23T05:23:20;99561.00;;;10.80
82411;BMP180;76378;60.040;30.218;2024-02-23T05:24:21;99566.00;;;10.80
82411;BMP180;76378;60.040;30.218;2024-02-23T05:25:21;99448.00;;;10.80
82411;BMP180;76378;60.040;30.218;2024-02-23T05:26:22;99581.00;;;10.80
82411;BMP180;76378;60.040;30.218;2024-02-23T05:27:23;99554.00;;;10.80
82411;BMP180;76378;60.040;30.218;2024-02-23T05:28:23;99563.00;;;10.80
82411;BMP180;76378;60.040;30.218;2024-02-23T05:29:24;99520.00;;;10.80
82411;BMP180;76378;60.040;30.218;2024-02-23T05:30:25;99569.00;;;10.80
82411;BMP180;76378;60.040;30.218;2024-02-23T05:31:48;99578.00;;;10.80
82411;BMP180;76378;60.040;30.218;2024-02-23T05:32:49;99565.00;;;10.80
82411;BMP180;76378;60.040;30.218;2024-02-23T05:33:49;99546.00;;;10.80
82411;BMP180;76378;60.040;30.218;2024-02-23T05:34:50;99560.00;;;10.80
82411;BMP180;76378;60.040;30.218;2024-02-23T05:35:53;99506.00;;;10.80
82411;BMP180;76378;60.040;30.218;2024-02-23T05:36:53;99567.00;;;10.80
82411;BMP180;76378;60.040;30.218;2024-02-23T05:37:54;99570.00;;;10.90
82411;BMP180;76378;60.040;30.218;2024-02-23T05:38:55;99557.00;;;10.80
82411;BMP180;76378;60.040;30.218;2024-02-23T05:39:56;99545.00;;;10.80
82411;BMP180;76378;60.040;30.218;2024-02-23T05:40:56;99575.00;;;10.90
82411;BMP180;76378;60.040;30.218;2024-02-23T05:41:57;99573.00;;;10.90
82411;BMP180;76378;60.040;30.218;2024-02-23T05:42:59;99546.00;;;10.90
82411;BMP180;76378;60.040;30.218;2024-02-23T05:44:00;99484.00;;;10.90
82411;BMP180;76378;60.040;30.218;2024-02-23T05:45:01;99552.00;;;10.90
82411;BMP180;76378;60.040;30.218;2024-02-23T05:46:02;99562.00;;;10.90